Time;durP1;ratioP1;P1;durP2;ratioP2;P2;SDS_P1;SDS_P2;PMS_P1;PMS_P2;Temp;Humidity;BMP_temperature;BMP_pressure;BME280_temperature;BME280_humidity;BME280_pressure;Samples;Min_cycle;Max_cycle;Signal;HPM_P1;HPM_P2
2023/12/09 00:00:38;;;;;;;7.68;2.22;;;;;;;18.53;41.49;100973.53;5048339;28;20033;-67
2023/12/09 00:03:04;;;;;;;6.10;2.00;;;;;;;18.63;41.57;100995.59;5048608;28;20037;-67
2023/12/09 00:05:29;;;;;;;6.85;2.03;;;;;;;18.60;41.57;100986.13;5048244;28;20262;-67
2023/12/09 00:07:54;;;;;;;7.95;2.30;;;;;;;18.59;41.34;100989.72;5048561;28;20116;-66
2023/12/09 00:10:20;;;;;;;8.35;2.40;;;;;;;18.47;41.48;100967.81;5048833;28;20037;-68
2023/12/09 00:12:48;;;;;;;5.15;2.15;;;;;;;18.46;41.35;100963.47;5046319;28;20115;-67
2023/12/09 00:15:13;;;;;;;7.60;2.40;;;;;;;18.49;41.16;100968.50;5048175;28;20212;-68
2023/12/09 00:17:38;;;;;;;6.85;2.30;;;;;;;18.54;41.49;100980.50;5048264;28;20037;-68
2023/12/09 00:20:05;;;;;;;7.20;2.60;;;;;;;18.44;41.55;100968.03;5048323;28;20520;-68
2023/12/09 00:22:30;;;;;;;6.97;2.03;;;;;;;18.45;41.53;100974.16;5048160;28;20492;-67
2023/12/09 00:24:55;;;;;;;6.97;2.50;;;;;;;18.46;41.20;100978.47;5048065;28;20033;-67
2023/12/09 00:27:21;;;;;;;6.68;2.03;;;;;;;18.48;41.25;100980.03;5048175;28;20285;-67
2023/12/09 00:29:46;;;;;;;6.30;2.10;;;;;;;18.34;41.26;100968.91;5046722;28;20108;-68
2023/12/09 00:32:11;;;;;;;7.38;2.42;;;;;;;18.46;41.42;100989.88;5047899;28;20037;-68
2023/12/09 00:34:36;;;;;;;6.78;2.20;;;;;;;18.46;41.42;100983.75;5047830;28;20032;-68
2023/12/09 00:37:02;;;;;;;8.53;2.40;;;;;;;18.39;41.32;100982.56;5047316;28;20064;-67
2023/12/09 00:39:27;;;;;;;6.15;2.00;;;;;;;18.44;41.54;100977.78;5045943;28;20272;-68
2023/12/09 00:41:52;;;;;;;6.28;2.33;;;;;;;18.43;41.41;100978.72;5047094;28;20112;-68
2023/12/09 00:44:20;;;;;;;6.82;2.20;;;;;;;18.41;41.23;100973.56;5046801;28;20039;-68
2023/12/09 00:46:46;;;;;;;7.55;2.40;;;;;;;18.39;41.14;100975.50;5047258;28;20053;-68
2023/12/09 00:49:11;;;;;;;8.00;2.40;;;;;;;18.37;41.52;100972.13;5047519;28;20105;-68
2023/12/09 00:51:37;;;;;;;7.97;2.42;;;;;;;18.35;41.25;100975.88;5046715;28;20029;-68
2023/12/09 00:54:02;;;;;;;7.20;3.13;;;;;;;18.33;41.36;100969.88;5047123;28;20033;-67
2023/12/09 00:56:27;;;;;;;6.43;2.22;;;;;;;18.34;41.12;100964.50;5046913;28;20056;-68
2023/12/09 00:58:52;;;;;;;7.85;2.30;;;;;;;18.35;41.11;100966.16;5047505;28;20064;-67
2023/12/09 01:01:18;;;;;;;6.10;1.88;;;;;;;18.25;41.40;100944.94;5047191;28;20457;-68
2023/12/09 01:03:44;;;;;;;4.67;1.73;;;;;;;18.36;41.36;100972.25;5046698;28;20096;-68
2023/12/09 01:06:09;;;;;;;8.13;2.35;;;;;;;18.27;41.04;100960.66;5046952;28;20282;-68
2023/12/09 01:08:34;;;;;;;6.88;2.33;;;;;;;18.33;41.53;100972.53;5045583;28;20033;-67
2023/12/09 01:11:00;;;;;;;6.75;2.15;;;;;;;18.23;41.37;100956.56;5046830;28;20408;-67
2023/12/09 01:13:25;;;;;;;8.38;2.50;;;;;;;18.31;41.21;100970.84;5046752;28;20126;-67
2023/12/09 01:15:50;;;;;;;7.28;2.70;;;;;;;18.21;41.24;100940.03;5046382;28;20037;-70
2023/12/09 01:18:15;;;;;;;7.37;2.73;;;;;;;18.24;41.11;100945.88;5046040;28;20029;-67
2023/12/09 01:20:41;;;;;;;6.57;2.10;;;;;;;18.19;41.43;100939.31;5046630;28;20638;-67
2023/12/09 01:23:07;;;;;;;7.35;2.47;;;;;;;18.28;41.29;100959.69;5046095;28;20040;-68
2023/12/09 01:25:32;;;;;;;7.03;2.17;;;;;;;18.24;41.34;100953.81;5046111;28;20044;-67
2023/12/09 01:27:57;;;;;;;5.93;2.25;;;;;;;18.17;41.25;100942.09;5043487;28;20037;-67
2023/12/09 01:30:23;;;;;;;9.02;2.85;;;;;;;18.15;41.37;100935.25;5044452;28;20072;-68
2023/12/09 01:32:48;;;;;;;5.47;2.00;;;;;;;18.15;41.29;100940.50;5046064;28;20036;-67
2023/12/09 01:35:14;;;;;;;7.82;2.47;;;;;;;18.23;41.12;100961.84;5046538;28;20509;-67
2023/12/09 01:37:39;;;;;;;7.78;2.50;;;;;;;18.05;41.18;100929.88;5045965;28;20120;-67
2023/12/09 01:40:05;;;;;;;6.47;2.05;;;;;;;18.10;40.89;100948.78;5045979;28;20040;-69
2023/12/09 01:42:30;;;;;;;6.90;2.60;;;;;;;18.12;41.22;100944.25;5046319;28;20108;-69
2023/12/09 01:44:55;;;;;;;6.70;2.67;;;;;;;18.18;41.16;100951.66;5046108;28;20393;-69
2023/12/09 01:47:21;;;;;;;8.03;2.13;;;;;;;18.12;41.16;100933.72;5046460;28;20262;-70
2023/12/09 01:49:46;;;;;;;8.00;1.98;;;;;;;18.10;41.17;100927.69;5045141;28;20269;-69
2023/12/09 01:52:12;;;;;;;6.95;2.10;;;;;;;18.17;41.07;100930.69;5046503;28;20021;-70
2023/12/09 01:54:37;;;;;;;6.63;2.00;;;;;;;18.17;41.08;100928.06;5046680;28;20029;-70
2023/12/09 01:57:03;;;;;;;9.20;2.75;;;;;;;18.06;41.13;100908.66;5046389;28;20048;-70
2023/12/09 01:59:30;;;;;;;5.88;2.00;;;;;;;18.07;40.85;100912.97;5046522;28;20523;-70
2023/12/09 02:01:56;;;;;;;6.13;2.17;;;;;;;18.15;41.10;100924.69;5046441;28;20063;-68
2023/12/09 02:04:22;;;;;;;6.25;2.10;;;;;;;18.06;40.98;100910.47;5046457;28;20078;-69
2023/12/09 02:06:47;;;;;;;5.82;2.38;;;;;;;18.13;40.66;100933.59;5046044;28;20115;-67
2023/12/09 02:09:12;;;;;;;7.07;2.20;;;;;;;18.12;40.98;100939.81;5045422;28;20025;-69
2023/12/09 02:11:58;;;;;;;5.75;2.25;;;;;;;18.11;40.85;100942.56;5045739;28;20029;-68
2023/12/09 02:14:32;;;;;;;6.60;1.92;;;;;;;17.87;40.95;100898.69;5046052;28;20032;-69
2023/12/09 02:17:12;;;;;;;7.00;2.70;;;;;;;18.05;40.79;100922.78;5045788;28;20458;-69
2023/12/09 02:19:38;;;;;;;6.88;2.10;;;;;;;18.08;40.87;100929.63;5060621;28;20025;-69
2023/12/09 02:22:06;;;;;;;5.75;2.10;;;;;;;17.97;40.93;100904.09;5045674;28;20082;-69
2023/12/09 02:24:32;;;;;;;7.15;2.50;;;;;;;17.97;40.72;100913.81;5046299;28;20033;-70
2023/12/09 02:27:10;;;;;;;6.60;2.22;;;;;;;17.95;40.73;100901.59;5046318;28;20119;-69
2023/12/09 02:29:59;;;;;;;4.97;2.00;;;;;;;18.05;40.63;100921.97;5045223;28;20104;-69
2023/12/09 02:32:31;;;;;;;5.28;2.00;;;;;;;17.92;41.06;100893.91;5046067;28;20025;-68
2023/12/09 02:34:58;;;;;;;6.07;2.45;;;;;;;17.93;40.79;100894.78;5046893;28;20389;-69
2023/12/09 02:37:26;;;;;;;7.78;2.08;;;;;;;18.00;40.52;100905.66;5048965;28;20032;-68
2023/12/09 02:39:52;;;;;;;6.22;2.25;;;;;;;18.01;40.95;100894.13;5049861;28;20555;-68
2023/12/09 02:42:18;;;;;;;6.22;2.08;;;;;;;18.01;40.95;100896.78;5048635;28;20040;-68
2023/12/09 02:44:44;;;;;;;7.05;2.20;;;;;;;17.92;40.94;100880.72;5049441;28;20041;-67
2023/12/09 02:47:13;;;;;;;6.13;2.03;;;;;;;18.00;40.77;100895.94;5049484;28;20074;-69
2023/12/09 02:49:39;;;;;;;8.00;2.15;;;;;;;17.90;40.87;100876.56;5047784;28;20139;-68
2023/12/09 02:52:05;;;;;;;5.55;2.03;;;;;;;17.90;40.88;100880.03;5049556;28;20116;-68
2023/12/09 02:54:30;;;;;;;5.53;2.05;;;;;;;17.99;40.88;100893.44;5049814;28;20458;-69
2023/12/09 02:56:55;;;;;;;5.80;2.08;;;;;;;17.88;40.70;100879.31;5049609;28;20098;-68
2023/12/09 02:59:21;;;;;;;6.55;2.10;;;;;;;17.88;40.52;100875.81;5048786;28;20037;-68
2023/12/09 03:01:46;;;;;;;5.90;2.00;;;;;;;17.97;40.72;100888.28;5049863;28;20041;-67
2023/12/09 03:04:11;;;;;;;6.25;1.80;;;;;;;17.87;40.63;100853.88;5049227;28;20844;-69
2023/12/09 03:06:36;;;;;;;6.68;2.22;;;;;;;17.93;40.80;100884.22;5050029;28;20036;-68
2023/12/09 03:09:03;;;;;;;4.90;1.90;;;;;;;17.97;40.57;100879.53;5049659;28;20029;-69
2023/12/09 03:11:28;;;;;;;5.88;2.03;;;;;;;17.85;40.78;100863.72;5049469;28;20270;-67
2023/12/09 03:13:53;;;;;;;5.50;1.98;;;;;;;17.87;41.02;100860.94;5048981;28;20040;-69
2023/12/09 03:16:18;;;;;;;6.63;2.38;;;;;;;17.94;40.85;100870.94;5049373;28;20037;-67
2023/12/09 03:18:44;;;;;;;4.32;1.85;;;;;;;17.94;40.46;100885.88;5048908;28;20111;-69
2023/12/09 03:21:14;;;;;;;6.80;2.50;;;;;;;17.91;40.73;100862.41;5049179;28;20123;-67
2023/12/09 03:23:41;;;;;;;5.43;1.98;;;;;;;17.85;40.63;100871.63;5049544;28;20029;-67
2023/12/09 03:26:16;;;;;;;6.93;2.13;;;;;;;17.89;40.63;100861.69;5049138;28;20465;-68
2023/12/09 03:28:42;;;;;;;6.57;2.28;;;;;;;17.85;40.36;100865.50;5049550;28;20029;-67
2023/12/09 03:31:13;;;;;;;6.80;2.30;;;;;;;17.84;40.49;100863.84;5047785;28;20051;-68
2023/12/09 03:33:38;;;;;;;7.93;2.30;;;;;;;17.84;40.63;100855.94;5049345;28;20043;-68
2023/12/09 03:36:05;;;;;;;7.63;2.58;;;;;;;17.88;40.76;100860.00;5049300;28;20033;-69
2023/12/09 03:38:30;;;;;;;6.32;2.00;;;;;;;17.89;40.71;100869.59;5049097;28;20068;-70
2023/12/09 03:40:55;;;;;;;6.53;1.80;;;;;;;17.86;40.71;100860.09;5048661;28;20406;-69
2023/12/09 03:43:20;;;;;;;7.18;1.92;;;;;;;17.80;40.56;100852.69;5049226;28;20029;-68
2023/12/09 03:45:46;;;;;;;6.25;1.92;;;;;;;17.86;40.67;100854.00;5048262;28;20387;-69
2023/12/09 03:48:11;;;;;;;5.97;1.92;;;;;;;17.87;40.59;100858.31;5047410;28;20107;-68
2023/12/09 03:50:36;;;;;;;7.18;2.20;;;;;;;17.87;40.47;100856.50;5047366;28;20375;-69
2023/12/09 03:53:01;;;;;;;7.43;2.35;;;;;;;17.79;40.24;100831.75;5048962;28;20070;-68
2023/12/09 03:55:27;;;;;;;5.35;2.22;;;;;;;17.79;40.47;100829.09;5046681;28;20390;-67
2023/12/09 03:57:53;;;;;;;5.75;2.10;;;;;;;17.77;40.75;100819.50;5048257;28;20126;-69
2023/12/09 04:00:19;;;;;;;7.35;2.20;;;;;;;17.82;40.86;100829.69;5048064;28;20389;-68
2023/12/09 04:02:44;;;;;;;6.63;2.03;;;;;;;17.77;40.54;100813.41;5048288;28;20033;-69
2023/12/09 04:05:10;;;;;;;5.20;2.03;;;;;;;17.74;40.85;100813.66;5048031;28;20036;-68
2023/12/09 04:07:36;;;;;;;6.18;2.30;;;;;;;17.73;40.76;100809.31;5048323;28;20029;-68
2023/12/09 04:10:01;;;;;;;8.75;2.10;;;;;;;17.84;40.79;100834.84;5048465;28;20060;-68
2023/12/09 04:12:27;;;;;;;4.38;1.90;;;;;;;17.84;40.47;100832.19;5048522;28;20060;-69
2023/12/09 04:14:52;;;;;;;5.28;2.10;;;;;;;17.80;40.34;100828.13;5048184;28;20025;-68
2023/12/09 04:17:19;;;;;;;5.97;1.77;;;;;;;17.77;40.41;100826.59;5048594;28;20377;-68
2023/12/09 04:19:44;;;;;;;4.80;1.58;;;;;;;17.81;40.58;100835.91;5047397;28;20794;-68
2023/12/09 04:22:10;;;;;;;6.35;1.90;;;;;;;17.80;40.44;100828.13;5048263;28;20055;-67
2023/12/09 04:24:35;;;;;;;5.03;1.88;;;;;;;17.77;40.54;100830.06;5047402;28;20032;-68
2023/12/09 04:27:01;;;;;;;5.82;2.03;;;;;;;17.70;40.71;100810.41;5047361;28;20033;-68
2023/12/09 04:29:26;;;;;;;6.75;2.70;;;;;;;17.80;40.56;100812.31;5045933;28;20394;-67
2023/12/09 04:31:51;;;;;;;6.63;2.20;;;;;;;17.79;40.22;100805.38;5047209;28;20082;-68
2023/12/09 04:34:16;;;;;;;6.88;2.28;;;;;;;17.78;40.67;100812.41;5047533;28;20272;-68
2023/12/09 04:36:42;;;;;;;9.35;2.30;;;;;;;17.79;40.74;100810.66;5047329;28;20087;-68
2023/12/09 04:39:07;;;;;;;7.85;2.10;;;;;;;17.68;40.36;100796.50;5046376;28;20056;-68
2023/12/09 04:41:32;;;;;;;7.35;2.25;;;;;;;17.73;40.43;100785.59;5047507;28;20039;-69
2023/12/09 04:43:58;;;;;;;7.05;2.03;;;;;;;17.70;40.38;100785.84;5047242;28;20041;-68
2023/12/09 04:46:23;;;;;;;6.03;1.80;;;;;;;17.67;40.60;100781.66;5046910;28;20053;-68
2023/12/09 04:48:48;;;;;;;4.55;1.90;;;;;;;17.75;40.39;100792.44;5046924;28;20353;-69
2023/12/09 04:51:15;;;;;;;6.15;2.20;;;;;;;17.65;40.26;100778.31;5047049;28;20037;-67
2023/12/09 04:53:41;;;;;;;6.03;1.90;;;;;;;17.73;40.62;100782.97;5047224;28;20025;-69
2023/12/09 04:56:07;;;;;;;6.95;2.17;;;;;;;17.71;40.51;100784.91;5047468;28;20032;-68
2023/12/09 04:58:33;;;;;;;5.85;2.00;;;;;;;17.73;40.18;100780.34;5047736;28;20315;-69
2023/12/09 05:00:58;;;;;;;5.95;2.05;;;;;;;17.69;40.20;100771.84;5047140;28;20034;-69
2023/12/09 05:03:23;;;;;;;5.53;1.83;;;;;;;17.65;40.57;100761.66;5047573;28;20073;-69
2023/12/09 05:05:48;;;;;;;5.30;1.60;;;;;;;17.67;40.38;100771.09;5047151;28;20531;-69
2023/12/09 05:08:14;;;;;;;7.20;2.05;;;;;;;17.70;40.64;100768.22;5047416;28;20037;-69
2023/12/09 05:10:39;;;;;;;6.47;2.10;;;;;;;17.59;40.57;100750.66;5045924;28;20071;-69
2023/12/09 05:13:04;;;;;;;6.35;1.73;;;;;;;17.68;40.50;100766.69;5047329;28;20419;-68
2023/12/09 05:15:29;;;;;;;7.82;2.20;;;;;;;17.61;40.39;100758.44;5046794;28;20029;-68
2023/12/09 05:17:55;;;;;;;5.73;2.00;;;;;;;17.63;40.61;100756.53;5047111;28;20036;-68
2023/12/09 05:20:22;;;;;;;5.30;1.65;;;;;;;17.68;40.45;100767.53;5047035;28;20746;-68
2023/12/09 05:22:47;;;;;;;6.38;2.03;;;;;;;17.63;40.19;100764.44;5046939;28;20039;-68
2023/12/09 05:25:13;;;;;;;7.68;1.92;;;;;;;17.58;40.62;100746.34;5046755;28;20389;-68
2023/12/09 05:27:39;;;;;;;7.15;1.85;;;;;;;17.59;40.60;100752.44;5046580;28;20029;-68
2023/12/09 05:30:05;;;;;;;4.95;1.88;;;;;;;17.56;40.48;100750.06;5045316;28;20125;-67
2023/12/09 05:32:30;;;;;;;5.53;2.00;;;;;;;17.65;40.26;100757.22;5046631;28;20044;-68
2023/12/09 05:34:55;;;;;;;6.07;1.65;;;;;;;17.66;40.23;100760.72;5045843;28;20036;-69
2023/12/09 05:37:21;;;;;;;4.40;1.60;;;;;;;17.60;40.69;100754.13;5044740;28;20075;-68
2023/12/09 05:39:46;;;;;;;4.55;1.58;;;;;;;17.31;40.51;100709.06;5045803;28;20270;-69
2023/12/09 05:42:11;;;;;;;5.68;1.90;;;;;;;17.64;40.21;100759.97;5046417;28;20040;-70
2023/12/09 05:44:37;;;;;;;6.50;1.90;;;;;;;17.56;40.30;100735.09;5046247;28;20056;-68
2023/12/09 05:47:02;;;;;;;7.70;2.15;;;;;;;17.61;40.22;100745.28;5046412;28;20094;-69
2023/12/09 05:49:27;;;;;;;6.35;2.22;;;;;;;17.64;40.63;100744.16;5046055;28;20033;-68
2023/12/09 05:51:53;;;;;;;7.97;2.13;;;;;;;17.58;40.23;100730.53;5046474;28;21292;-70
2023/12/09 05:54:18;;;;;;;4.63;1.88;;;;;;;17.63;40.49;100734.59;5045737;28;20032;-68
2023/12/09 05:56:48;;;;;;;5.78;1.70;;;;;;;17.62;40.27;100735.56;5046612;28;20043;-68
2023/12/09 05:59:14;;;;;;;7.65;2.08;;;;;;;17.61;40.15;100732.09;5046470;28;20110;-69
2023/12/09 06:01:39;;;;;;;5.13;1.40;;;;;;;17.57;40.25;100725.38;5046463;28;20076;-69
2023/12/09 06:04:04;;;;;;;5.35;1.50;;;;;;;17.57;40.34;100726.22;5046509;28;20037;-68
2023/12/09 06:06:29;;;;;;;4.87;1.50;;;;;;;17.68;40.28;100730.63;5046389;28;20051;-68
2023/12/09 06:08:55;;;;;;;4.83;1.53;;;;;;;17.64;40.81;100715.19;5045888;28;20266;-69
2023/12/09 06:11:20;;;;;;;3.88;1.30;;;;;;;17.76;40.58;100736.09;5044417;28;20254;-67
2023/12/09 06:13:46;;;;;;;5.38;1.40;;;;;;;17.75;40.50;100709.88;5046070;28;20524;-68
2023/12/09 06:16:19;;;;;;;5.07;1.25;;;;;;;17.80;40.71;100712.13;5045805;28;20036;-68
2023/12/09 06:18:45;;;;;;;4.93;1.40;;;;;;;17.86;40.56;100706.38;5044806;28;20129;-69
2023/12/09 06:21:22;;;;;;;3.97;1.40;;;;;;;17.94;40.53;100703.97;5045704;28;20094;-68
2023/12/09 06:23:47;;;;;;;4.45;1.08;;;;;;;17.90;40.39;100689.38;5045884;28;20033;-70
2023/12/09 06:26:12;;;;;;;3.10;1.10;;;;;;;17.99;40.40;100691.25;5046300;28;20029;-68
2023/12/09 06:28:37;;;;;;;4.07;1.20;;;;;;;18.00;40.05;100695.53;5046219;28;20482;-69
2023/12/09 06:31:03;;;;;;;3.05;1.17;;;;;;;17.98;40.22;100681.66;5044474;28;20571;-69
2023/12/09 06:33:28;;;;;;;3.92;1.13;;;;;;;18.08;40.72;100698.38;5046000;28;20062;-68
2023/12/09 06:35:54;;;;;;;4.25;1.15;;;;;;;18.09;40.18;100680.78;5042526;28;20037;-68
2023/12/09 06:38:19;;;;;;;4.68;1.45;;;;;;;18.09;40.30;100681.59;5044068;28;20068;-68
2023/12/09 06:40:44;;;;;;;5.00;1.10;;;;;;;18.03;40.21;100663.66;5044274;28;20421;-68
2023/12/09 06:43:09;;;;;;;4.93;1.38;;;;;;;18.10;40.21;100674.50;5046008;28;20103;-69
2023/12/09 06:45:35;;;;;;;3.92;1.30;;;;;;;18.07;40.39;100659.78;5045483;28;20382;-69
2023/12/09 06:48:00;;;;;;;4.93;1.25;;;;;;;18.04;40.31;100646.88;5045906;28;20037;-69
2023/12/09 06:50:25;;;;;;;3.42;1.17;;;;;;;18.16;40.34;100652.06;5046287;28;20033;-68
2023/12/09 06:52:50;;;;;;;5.57;1.35;;;;;;;18.16;40.52;100639.72;5045901;28;20035;-70
2023/12/09 06:55:16;;;;;;;4.77;1.10;;;;;;;18.15;40.15;100637.19;5045588;28;20078;-69
2023/12/09 06:57:41;;;;;;;3.45;1.17;;;;;;;18.13;40.07;100618.88;5046082;28;20290;-68
2023/12/09 07:00:08;;;;;;;4.90;1.15;;;;;;;18.15;40.22;100605.56;5045142;28;20389;-69
2023/12/09 07:02:33;;;;;;;2.67;0.90;;;;;;;18.13;40.42;100587.22;5046119;28;20112;-67
2023/12/09 07:04:58;;;;;;;4.60;1.10;;;;;;;18.23;40.14;100603.09;5045356;28;20111;-68
2023/12/09 07:07:24;;;;;;;3.70;1.20;;;;;;;18.16;40.17;100583.50;5045172;28;20029;-69
2023/12/09 07:09:49;;;;;;;5.70;1.48;;;;;;;18.19;40.44;100581.44;5045738;28;20083;-68
2023/12/09 07:12:14;;;;;;;3.92;1.17;;;;;;;18.21;40.15;100579.47;5045949;28;20059;-69
2023/12/09 07:14:39;;;;;;;3.67;1.10;;;;;;;18.27;40.12;100578.13;5045914;28;20464;-68
2023/12/09 07:17:05;;;;;;;4.00;1.20;;;;;;;18.27;39.94;100567.59;5045630;28;20285;-68
2023/12/09 07:19:30;;;;;;;4.45;1.27;;;;;;;18.29;40.00;100560.38;5041988;28;20273;-68
2023/12/09 07:21:55;;;;;;;4.32;1.17;;;;;;;18.23;40.20;100547.69;5043856;28;20037;-69
2023/12/09 07:24:21;;;;;;;3.83;1.38;;;;;;;18.23;40.38;100547.69;5046978;28;20055;-68
2023/12/09 07:26:46;;;;;;;4.65;1.10;;;;;;;18.29;40.34;100566.50;5046853;28;20120;-68
2023/12/09 07:29:11;;;;;;;5.35;1.38;;;;;;;18.28;40.08;100569.25;5047309;28;20031;-69
2023/12/09 07:31:37;;;;;;;4.90;1.38;;;;;;;18.25;40.40;100573.00;5047460;28;20086;-69
2023/12/09 07:34:03;;;;;;;3.70;1.00;;;;;;;18.28;40.59;100564.81;5047548;28;20113;-69
2023/12/09 07:36:28;;;;;;;3.97;1.05;;;;;;;18.24;40.47;100552.84;5048592;28;20036;-68
2023/12/09 07:38:54;;;;;;;4.00;1.23;;;;;;;18.23;40.93;100527.44;5049039;28;20040;-70
2023/12/09 07:41:19;;;;;;;6.25;1.33;;;;;;;18.24;41.01;100523.00;5048323;28;20033;-68
2023/12/09 07:43:44;;;;;;;3.67;1.20;;;;;;;18.37;41.06;100544.69;5048222;28;20071;-70
2023/12/09 07:46:09;;;;;;;3.83;1.17;;;;;;;18.26;40.95;100521.91;5047763;28;20274;-68
2023/12/09 07:48:35;;;;;;;3.53;1.23;;;;;;;18.38;41.23;100551.66;5046920;28;20071;-69
2023/12/09 07:51:00;;;;;;;3.33;1.50;;;;;;;18.30;40.91;100540.94;5046027;28;20040;-69
2023/12/09 07:53:26;;;;;;;2.75;0.85;;;;;;;18.39;41.41;100545.41;5047769;28;20021;-69
2023/12/09 07:55:51;;;;;;;4.32;1.30;;;;;;;18.42;41.39;100545.16;5048293;28;20029;-68
2023/12/09 07:58:16;;;;;;;3.40;1.00;;;;;;;18.39;41.43;100528.75;5048258;28;20039;-69
2023/12/09 08:00:42;;;;;;;2.72;0.90;;;;;;;18.44;41.31;100535.28;5048539;28;20521;-69
2023/12/09 08:03:07;;;;;;;4.55;1.23;;;;;;;18.40;41.63;100502.22;5048577;28;20032;-70
2023/12/09 08:05:34;;;;;;;4.07;1.10;;;;;;;18.38;41.79;100503.34;5048611;28;20017;-69
2023/12/09 08:07:59;;;;;;;3.28;1.05;;;;;;;18.47;41.73;100506.00;5048440;28;20031;-68
2023/12/09 08:10:25;;;;;;;3.90;1.10;;;;;;;18.44;41.42;100495.72;5048093;28;20427;-67
2023/12/09 08:12:50;;;;;;;3.33;1.00;;;;;;;18.51;41.74;100511.00;5046532;28;20036;-67
2023/12/09 08:15:15;;;;;;;4.25;1.10;;;;;;;18.42;42.11;100492.38;5046536;28;20533;-68
2023/12/09 08:17:41;;;;;;;4.10;1.23;;;;;;;18.48;42.28;100502.41;5047710;28;20461;-69
2023/12/09 08:20:11;;;;;;;5.25;1.23;;;;;;;18.45;42.20;100496.53;5047871;28;20074;-68
2023/12/09 08:22:39;;;;;;;3.63;1.10;;;;;;;18.48;42.38;100501.56;5047724;28;20082;-68
2023/12/09 08:25:09;;;;;;;4.15;1.48;;;;;;;18.41;42.09;100487.25;5047863;28;20479;-68
2023/12/09 08:27:34;;;;;;;4.15;1.30;;;;;;;18.50;42.33;100497.00;5048040;28;20412;-69
2023/12/09 08:30:00;;;;;;;2.63;0.82;;;;;;;18.46;42.42;100488.50;5046438;28;20892;-68
2023/12/09 08:32:25;;;;;;;3.70;1.20;;;;;;;18.53;42.16;100499.34;5047635;28;20075;-70
2023/12/09 08:34:50;;;;;;;3.97;1.13;;;;;;;18.44;41.91;100479.06;5047713;28;20413;-69
2023/12/09 08:37:24;;;;;;;5.28;1.13;;;;;;;18.45;42.31;100480.72;5046662;28;20044;-68
2023/12/09 08:39:52;;;;;;;5.35;1.60;;;;;;;18.54;42.65;100497.56;5048123;28;20033;-68
2023/12/09 08:42:17;;;;;;;3.72;1.10;;;;;;;18.45;42.42;100476.28;5048261;28;20044;-67
2023/12/09 08:44:42;;;;;;;5.23;1.20;;;;;;;18.54;42.32;100482.53;5048043;28;20035;-68
2023/12/09 08:47:07;;;;;;;5.32;1.70;;;;;;;18.47;42.21;100479.63;5047654;28;20282;-68
2023/12/09 08:49:33;;;;;;;4.53;1.13;;;;;;;18.48;42.49;100470.75;5047791;28;20025;-69
2023/12/09 08:51:58;;;;;;;4.47;1.23;;;;;;;18.45;42.21;100465.72;5047658;28;20266;-67
2023/12/09 08:54:23;;;;;;;5.05;1.38;;;;;;;18.52;42.01;100475.72;5047751;28;20029;-68
2023/12/09 08:56:49;;;;;;;4.25;1.10;;;;;;;18.54;42.19;100474.63;5047234;28;20033;-68
2023/12/09 08:59:14;;;;;;;5.20;1.00;;;;;;;18.46;42.20;100454.19;5047487;28;20029;-68
2023/12/09 09:01:40;;;;;;;6.55;1.10;;;;;;;18.54;42.47;100461.44;5046137;28;20366;-67
2023/12/09 09:04:05;;;;;;;4.25;1.25;;;;;;;18.53;42.39;100453.66;5047113;28;20040;-68
2023/12/09 09:06:31;;;;;;;5.22;1.60;;;;;;;18.49;42.21;100437.25;5047095;28;20032;-68
2023/12/09 09:08:56;;;;;;;3.13;1.00;;;;;;;18.58;42.06;100444.38;5046950;28;20028;-68
2023/12/09 09:11:22;;;;;;;3.08;1.00;;;;;;;18.49;41.72;100424.88;5046871;28;20119;-68
2023/12/09 09:13:47;;;;;;;7.43;1.60;;;;;;;18.52;42.00;100413.25;5045327;28;20024;-68
2023/12/09 09:16:16;;;;;;;3.70;1.10;;;;;;;18.52;42.04;100404.47;5047042;28;20033;-70
2023/12/09 09:18:42;;;;;;;4.88;1.30;;;;;;;18.45;42.30;100383.94;5044285;28;20037;-69
2023/12/09 09:21:07;;;;;;;4.35;1.30;;;;;;;18.46;42.08;100377.66;5045885;28;20437;-68
2023/12/09 09:23:34;;;;;;;3.47;1.00;;;;;;;18.50;42.14;100375.63;5046683;28;20059;-68
2023/12/09 09:25:59;;;;;;;4.40;1.10;;;;;;;18.47;42.21;100360.06;5046887;28;20112;-69
2023/12/09 09:28:24;;;;;;;4.05;1.20;;;;;;;18.52;42.34;100362.25;5046405;28;20473;-69
2023/12/09 09:30:50;;;;;;;3.50;1.00;;;;;;;18.42;42.06;100349.06;5045486;28;20025;-70
2023/12/09 09:33:15;;;;;;;4.32;1.20;;;;;;;18.43;42.24;100340.19;5046528;28;20037;-68
2023/12/09 09:35:41;;;;;;;3.72;1.05;;;;;;;18.49;42.00;100348.38;5046479;28;20025;-69
2023/12/09 09:38:06;;;;;;;5.18;1.27;;;;;;;18.48;42.28;100362.56;5046078;28;20040;-68
2023/12/09 09:40:31;;;;;;;8.07;1.10;;;;;;;18.39;42.19;100339.63;5046427;28;20117;-68
2023/12/09 09:43:04;;;;;;;3.28;0.90;;;;;;;18.41;42.23;100350.06;5046509;28;20155;-70
2023/12/09 09:45:30;;;;;;;5.82;1.05;;;;;;;18.41;42.11;100348.25;5045543;28;20564;-68
2023/12/09 09:47:55;;;;;;;3.70;1.17;;;;;;;18.39;42.10;100339.63;5046295;28;20123;-70
2023/12/09 09:50:23;;;;;;;4.70;1.17;;;;;;;18.43;42.04;100348.91;5046508;28;20028;-69
2023/12/09 09:52:49;;;;;;;3.92;1.10;;;;;;;18.45;42.11;100332.94;5046468;28;20420;-69
2023/12/09 09:55:17;;;;;;;4.38;1.30;;;;;;;18.47;42.03;100325.75;5046563;28;20036;-69
2023/12/09 09:57:43;;;;;;;5.57;1.02;;;;;;;18.40;42.19;100306.97;5046082;28;20041;-67
2023/12/09 10:00:13;;;;;;;4.60;1.00;;;;;;;18.47;42.23;100316.03;5045765;28;20037;-69
2023/12/09 10:02:41;;;;;;;2.53;1.00;;;;;;;18.48;42.28;100315.06;5046094;28;21449;-69
2023/12/09 10:05:08;;;;;;;3.22;1.00;;;;;;;18.38;42.14;100292.28;5045831;28;20060;-68
2023/12/09 10:07:34;;;;;;;3.78;1.08;;;;;;;18.39;42.05;100294.78;5046264;28;20037;-70
2023/12/09 10:09:59;;;;;;;4.85;1.10;;;;;;;18.38;42.11;100274.63;5045979;28;20025;-69
2023/12/09 10:12:26;;;;;;;4.38;0.85;;;;;;;18.46;42.28;100273.94;5046187;28;20055;-70
2023/12/09 10:14:51;;;;;;;2.60;0.90;;;;;;;18.37;42.46;100249.22;5046335;28;20037;-69
2023/12/09 10:17:17;;;;;;;5.20;1.10;;;;;;;18.38;42.11;100247.44;5046007;28;20033;-68
2023/12/09 10:19:42;;;;;;;3.28;0.90;;;;;;;18.45;42.31;100252.00;5045949;28;20033;-69
2023/12/09 10:22:07;;;;;;;2.78;0.88;;;;;;;18.34;42.29;100223.16;5045770;28;20040;-70
2023/12/09 10:24:33;;;;;;;4.07;1.05;;;;;;;18.44;42.35;100234.50;5044913;28;20037;-69
2023/12/09 10:26:58;;;;;;;3.00;1.00;;;;;;;18.45;42.33;100225.63;5045528;28;20075;-70
2023/12/09 10:29:24;;;;;;;3.35;1.23;;;;;;;18.44;42.51;100207.31;5048474;28;20402;-68
2023/12/09 10:31:50;;;;;;;4.35;0.90;;;;;;;18.45;42.08;100195.75;5045659;28;20502;-68
2023/12/09 10:34:16;;;;;;;3.22;1.08;;;;;;;18.42;42.44;100186.34;5045970;28;20068;-68
2023/12/09 10:36:41;;;;;;;3.55;1.00;;;;;;;18.38;42.28;100177.03;5045894;28;20112;-68
2023/12/09 10:39:08;;;;;;;2.67;0.90;;;;;;;18.45;42.36;100191.34;5045892;28;20405;-68
2023/12/09 10:41:34;;;;;;;3.80;0.80;;;;;;;18.46;42.27;100181.59;5044094;28;20063;-68
2023/12/09 10:44:00;;;;;;;3.25;1.00;;;;;;;18.45;42.50;100167.59;5045469;28;20068;-69
2023/12/09 10:46:26;;;;;;;2.70;0.80;;;;;;;18.39;42.50;100143.56;5046280;28;20049;-68
2023/12/09 10:48:51;;;;;;;2.87;0.80;;;;;;;18.43;42.42;100135.22;5046281;28;20603;-69
2023/12/09 10:51:17;;;;;;;2.78;0.88;;;;;;;18.46;42.69;100137.56;5046202;28;20335;-68
2023/12/09 10:53:44;;;;;;;4.13;1.05;;;;;;;18.46;42.43;100126.19;5046342;28;20080;-67
2023/12/09 10:56:09;;;;;;;3.80;0.90;;;;;;;18.44;42.41;100113.16;5046981;28;20533;-69
2023/12/09 10:58:37;;;;;;;4.10;0.95;;;;;;;18.38;42.29;100087.34;5050158;28;20091;-67
2023/12/09 11:01:03;;;;;;;4.05;1.20;;;;;;;18.42;42.39;100080.81;5049878;28;20370;-68
2023/12/09 11:03:29;;;;;;;2.90;0.90;;;;;;;18.39;42.65;100067.91;5049994;28;20037;-67
2023/12/09 11:05:57;;;;;;;6.53;1.63;;;;;;;18.45;42.52;100072.59;5049046;28;20045;-68
2023/12/09 11:08:27;;;;;;;9.70;2.25;;;;;;;18.46;42.72;100068.97;5048491;28;20230;-68
2023/12/09 11:10:53;;;;;;;11.38;6.43;;;;;;;18.40;42.44;100056.34;5049328;28;20029;-68
2023/12/09 11:13:19;;;;;;;18.83;16.90;;;;;;;18.41;43.01;100034.28;5049437;28;20401;-69
2023/12/09 11:15:45;;;;;;;30.65;27.60;;;;;;;18.38;42.95;100020.56;5049621;28;20090;-68
2023/12/09 11:18:11;;;;;;;36.05;32.55;;;;;;;18.49;43.21;100037.00;5049536;28;20052;-68